createdAt,value
2023-07-18T00:00:36.185Z,83.69
2023-07-18T00:01:36.195Z,83.99
2023-07-18T00:02:36.227Z,84.20
2023-07-18T00:03:36.170Z,84.30
2023-07-18T00:04:36.128Z,84.30
2023-07-18T00:05:36.083Z,84.30
2023-07-18T00:06:36.127Z,84.20
2023-07-18T00:07:36.056Z,84.09
2023-07-18T00:08:36.082Z,84.09
2023-07-18T00:09:36.042Z,83.99
2023-07-18T00:10:36.072Z,84.09
2023-07-18T00:11:36.971Z,84.09
2023-07-18T00:12:36.044Z,84.20
2023-07-18T00:13:36.005Z,84.09
2023-07-18T00:14:36.035Z,84.09
2023-07-18T00:15:35.985Z,84.09
2023-07-18T00:16:36.084Z,84.34
2023-07-18T00:17:35.997Z,84.34
2023-07-18T00:18:35.988Z,84.23
2023-07-18T00:19:35.922Z,84.13
2023-07-18T00:20:35.938Z,84.13
2023-07-18T00:21:35.992Z,84.38
2023-07-18T00:22:35.963Z,84.38
2023-07-18T00:23:35.890Z,84.48
2023-07-18T00:24:35.904Z,84.62
2023-07-18T00:25:35.910Z,84.72
2023-07-18T00:26:35.914Z,84.82
2023-07-18T00:27:35.849Z,84.92
2023-07-18T00:28:35.883Z,85.03
2023-07-18T00:29:35.827Z,85.03
2023-07-18T00:30:35.841Z,84.82
2023-07-18T00:31:35.850Z,84.82
2023-07-18T00:32:35.853Z,84.92
2023-07-18T00:33:35.806Z,84.92
2023-07-18T00:34:35.814Z,84.92
2023-07-18T00:35:35.750Z,85.06
2023-07-18T00:36:36.723Z,85.27
2023-07-18T00:37:35.723Z,85.37
2023-07-18T00:38:36.724Z,85.47
2023-07-18T00:39:35.718Z,85.33
2023-07-18T00:40:35.745Z,85.33
2023-07-18T00:41:35.724Z,85.23
2023-07-18T00:42:35.695Z,85.13
2023-07-18T00:43:35.695Z,85.13
2023-07-18T00:44:35.678Z,85.23
2023-07-18T00:45:35.639Z,85.33
2023-07-18T00:46:35.709Z,85.33
2023-07-18T00:47:35.660Z,85.43
2023-07-18T00:48:35.658Z,85.43
2023-07-18T00:49:35.594Z,85.33
2023-07-18T00:50:35.622Z,85.43
2023-07-18T00:51:35.570Z,85.33
2023-07-18T00:52:35.610Z,85.47
2023-07-18T00:53:35.547Z,85.58
2023-07-18T00:54:35.560Z,85.58
2023-07-18T00:55:35.539Z,85.78
2023-07-18T00:56:35.544Z,85.68
2023-07-18T00:57:35.519Z,85.68
2023-07-18T00:58:35.524Z,85.88
2023-07-18T00:59:35.474Z,85.88
2023-07-18T01:00:35.512Z,86.08
2023-07-18T01:01:35.544Z,86.33
2023-07-18T01:02:35.534Z,86.43
2023-07-18T01:03:35.468Z,86.43
2023-07-18T01:04:35.506Z,86.53
2023-07-18T01:05:35.412Z,86.53
2023-07-18T01:06:35.423Z,86.43
2023-07-18T01:07:35.402Z,86.43
2023-07-18T01:08:35.429Z,86.53
2023-07-18T01:09:35.404Z,86.94
2023-07-18T01:10:35.422Z,87.14
2023-07-18T01:11:35.337Z,87.35
2023-07-18T01:12:35.358Z,87.45
2023-07-18T01:13:35.351Z,87.65
2023-07-18T01:14:35.358Z,87.85
2023-07-18T01:15:35.412Z,88.06
2023-07-18T01:16:35.313Z,88.26
2023-07-18T01:17:35.334Z,88.36
2023-07-18T01:18:35.298Z,88.42
2023-07-18T01:19:35.244Z,88.73
2023-07-18T01:20:36.246Z,88.63
2023-07-18T01:21:35.250Z,88.42
2023-07-18T01:22:35.265Z,88.32
2023-07-18T01:23:35.217Z,88.28
2023-07-18T01:24:35.226Z,88.18
2023-07-18T01:25:35.199Z,88.18
2023-07-18T01:26:35.230Z,88.18
2023-07-18T01:27:35.182Z,88.08
2023-07-18T01:28:35.188Z,87.87
2023-07-18T01:29:35.156Z,87.67
2023-07-18T01:30:35.184Z,87.87
2023-07-18T01:31:35.176Z,87.87
2023-07-18T01:32:35.397Z,88.08
2023-07-18T01:33:35.088Z,88.39
2023-07-18T01:34:35.111Z,88.48
2023-07-18T01:35:35.085Z,88.24
2023-07-18T01:36:35.116Z,88.04
2023-07-18T01:37:35.050Z,87.93
2023-07-18T01:38:35.089Z,88.13
2023-07-18T01:39:35.038Z,88.24
2023-07-18T01:40:37.013Z,88.34
2023-07-18T01:41:35.011Z,88.34
2023-07-18T01:42:35.022Z,88.24
2023-07-18T01:43:35.009Z,88.13
2023-07-18T01:44:35.023Z,88.20
2023-07-18T01:45:34.990Z,88.20
2023-07-18T01:46:35.000Z,87.99
2023-07-18T01:47:35.110Z,87.89
2023-07-18T01:48:34.949Z,87.69
2023-07-18T01:49:34.952Z,87.79
2023-07-18T01:50:34.946Z,87.79
2023-07-18T01:51:35.008Z,87.89
2023-07-18T01:52:34.908Z,87.89
2023-07-18T01:53:34.880Z,87.99
2023-07-18T01:54:34.891Z,87.89
2023-07-18T01:55:34.865Z,87.79
2023-07-18T01:56:34.871Z,87.89
2023-07-18T01:57:34.822Z,87.89
2023-07-18T01:58:34.874Z,87.79
2023-07-18T01:59:34.812Z,87.89
2023-07-18T02:00:34.884Z,87.79
2023-07-18T02:01:34.809Z,87.79
2023-07-18T02:02:34.891Z,87.69
2023-07-18T02:03:34.888Z,87.69
2023-07-18T02:04:34.783Z,87.69
2023-07-18T02:05:34.758Z,87.79
2023-07-18T02:06:34.742Z,87.69
2023-07-18T02:07:34.728Z,87.79
2023-07-18T02:08:34.737Z,87.89
2023-07-18T02:09:34.693Z,87.99
2023-07-18T02:10:34.733Z,87.99
2023-07-18T02:11:34.682Z,87.99
2023-07-18T02:12:34.684Z,88.20
2023-07-18T02:13:34.669Z,88.20
2023-07-18T02:14:34.665Z,88.30
2023-07-18T02:15:34.659Z,88.20
2023-07-18T02:16:34.681Z,88.10
2023-07-18T02:17:34.707Z,87.99
2023-07-18T02:18:34.644Z,87.93
2023-07-18T02:19:34.585Z,88.04
2023-07-18T02:20:34.617Z,88.13
2023-07-18T02:21:34.573Z,88.13
2023-07-18T02:22:35.309Z,88.13
2023-07-18T02:23:34.544Z,88.13
2023-07-18T02:24:34.554Z,88.04
2023-07-18T02:25:34.535Z,87.53
2023-07-18T02:26:34.535Z,86.86
2023-07-18T02:27:34.536Z,86.65
2023-07-18T02:28:34.524Z,86.80
2023-07-18T02:29:34.463Z,87.30
2023-07-18T02:30:34.591Z,88.06
2023-07-18T02:31:34.459Z,88.77
2023-07-18T02:32:34.478Z,89.07
2023-07-18T02:33:34.442Z,89.28
2023-07-18T02:34:34.455Z,89.07
2023-07-18T02:35:34.411Z,88.98
2023-07-18T02:36:34.426Z,88.87
2023-07-18T02:37:34.399Z,88.77
2023-07-18T02:38:34.396Z,88.57
2023-07-18T02:39:34.402Z,88.46
2023-07-18T02:40:34.392Z,88.36
2023-07-18T02:41:34.357Z,88.26
2023-07-18T02:42:34.351Z,88.26
2023-07-18T02:43:34.334Z,88.16
2023-07-18T02:44:34.340Z,87.96
2023-07-18T02:45:34.293Z,87.85
2023-07-18T02:46:34.345Z,87.81
2023-07-18T02:47:34.310Z,87.75
2023-07-18T02:48:34.297Z,87.75
2023-07-18T02:49:34.236Z,87.71
2023-07-18T02:50:34.282Z,87.65
2023-07-18T02:51:34.230Z,87.65
2023-07-18T02:52:34.235Z,87.55
2023-07-18T02:53:34.220Z,87.45
2023-07-18T02:54:34.204Z,87.45
2023-07-18T02:55:34.170Z,87.45
2023-07-18T02:56:34.198Z,87.45
2023-07-18T02:57:34.320Z,87.45
2023-07-18T02:58:34.200Z,87.35
2023-07-18T02:59:34.146Z,87.14
2023-07-18T03:00:34.144Z,87.04
2023-07-18T03:01:34.139Z,87.04
2023-07-18T03:02:34.488Z,86.94
2023-07-18T03:03:34.191Z,86.83
2023-07-18T03:04:34.162Z,86.74
2023-07-18T03:05:34.071Z,86.49
2023-07-18T03:06:34.088Z,86.49
2023-07-18T03:07:34.051Z,86.39
2023-07-18T03:08:34.058Z,86.43
2023-07-18T03:09:34.027Z,86.43
2023-07-18T03:10:34.043Z,86.33
2023-07-18T03:11:34.010Z,86.33
2023-07-18T03:12:34.029Z,86.13
2023-07-18T03:13:34.926Z,86.22
2023-07-18T03:14:33.994Z,86.33
2023-07-18T03:15:33.961Z,86.43
2023-07-18T03:16:34.005Z,86.43
2023-07-18T03:17:33.982Z,86.53
2023-07-18T03:18:33.939Z,86.53
2023-07-18T03:19:33.916Z,86.63
2023-07-18T03:20:33.921Z,86.68
2023-07-18T03:21:33.877Z,86.77
2023-07-18T03:22:33.935Z,86.77
2023-07-18T03:23:33.855Z,86.77
2023-07-18T03:24:33.869Z,86.77
2023-07-18T03:25:33.865Z,86.77
2023-07-18T03:26:33.852Z,86.77
2023-07-18T03:27:33.823Z,86.88
2023-07-18T03:28:33.832Z,86.88
2023-07-18T03:29:33.781Z,86.88
2023-07-18T03:30:33.827Z,86.88
2023-07-18T03:31:33.777Z,86.88
2023-07-18T03:32:33.819Z,86.77
2023-07-18T03:33:33.744Z,86.98
2023-07-18T03:34:33.768Z,86.98
2023-07-18T03:35:33.747Z,86.88
2023-07-18T03:36:33.731Z,86.88
2023-07-18T03:37:33.690Z,86.77
2023-07-18T03:38:33.701Z,86.88
2023-07-18T03:39:33.684Z,86.88
2023-07-18T03:40:33.662Z,86.77
2023-07-18T03:41:33.714Z,86.77
2023-07-18T03:42:33.680Z,86.47
2023-07-18T03:43:33.693Z,86.27
2023-07-18T03:44:34.605Z,86.16
2023-07-18T03:45:33.626Z,86.06
2023-07-18T03:46:33.645Z,85.82
2023-07-18T03:47:33.616Z,85.72
2023-07-18T03:48:33.628Z,85.72
2023-07-18T03:49:33.654Z,85.82
2023-07-18T03:50:33.562Z,85.75
2023-07-18T03:51:34.039Z,85.86
2023-07-18T03:52:33.542Z,85.86
2023-07-18T03:53:33.577Z,85.86
2023-07-18T03:54:33.504Z,85.75
2023-07-18T03:55:33.575Z,85.51
2023-07-18T03:56:33.476Z,85.21
2023-07-18T03:57:33.511Z,85.00
2023-07-18T03:58:33.463Z,84.59
2023-07-18T03:59:33.508Z,84.50
2023-07-18T04:00:33.464Z,84.59
2023-07-18T04:01:33.483Z,84.59
2023-07-18T04:02:33.473Z,84.59
2023-07-18T04:03:33.509Z,84.70
2023-07-18T04:04:33.420Z,84.90
2023-07-18T04:05:33.403Z,84.90
2023-07-18T04:06:33.375Z,84.59
2023-07-18T04:07:33.392Z,84.39
2023-07-18T04:08:33.346Z,84.50
2023-07-18T04:09:33.381Z,84.70
2023-07-18T04:10:33.331Z,84.90
2023-07-18T04:11:33.348Z,85.00
2023-07-18T04:12:33.314Z,85.11
2023-07-18T04:13:33.318Z,84.01
2023-07-18T04:14:33.310Z,80.16
2023-07-18T04:15:33.292Z,75.07
2023-07-18T04:16:33.282Z,71.00
2023-07-18T04:17:33.315Z,68.41
2023-07-18T04:18:33.262Z,67.50
2023-07-18T04:19:33.274Z,68.47
2023-07-18T04:20:33.235Z,68.27
2023-07-18T04:21:33.225Z,65.33
2023-07-18T04:22:33.212Z,62.49
2023-07-18T04:23:33.206Z,60.19
2023-07-18T04:24:33.186Z,58.20
2023-07-18T04:25:33.253Z,56.87
2023-07-18T04:26:33.170Z,55.52
2023-07-18T04:27:33.183Z,54.99
2023-07-18T04:28:33.144Z,54.27
2023-07-18T04:29:33.154Z,53.64
2023-07-18T04:30:33.122Z,52.92
2023-07-18T04:31:33.128Z,51.87
2023-07-18T04:32:33.117Z,51.05
2023-07-18T04:33:35.101Z,50.62
2023-07-18T04:34:33.096Z,50.23
2023-07-18T04:35:33.075Z,49.80
2023-07-18T04:36:33.055Z,49.48
2023-07-18T04:37:33.090Z,49.38
2023-07-18T04:38:33.030Z,49.16
2023-07-18T04:39:33.040Z,48.96
2023-07-18T04:40:33.057Z,48.54
2023-07-18T04:41:45.083Z,47.92
2023-07-18T04:42:34.008Z,48.24
2023-07-18T04:43:33.121Z,50.67
2023-07-18T04:44:32.957Z,52.84
2023-07-18T04:45:32.964Z,53.87
2023-07-18T04:46:33.060Z,52.27
2023-07-18T04:47:33.060Z,50.70
2023-07-18T04:48:32.919Z,49.46
2023-07-18T04:49:33.025Z,48.61
2023-07-18T04:50:32.894Z,48.41
2023-07-18T04:51:32.983Z,47.67
2023-07-18T04:52:32.880Z,47.28
2023-07-18T04:53:32.914Z,47.35
2023-07-18T04:54:32.848Z,46.95
2023-07-18T04:55:32.856Z,47.05
2023-07-18T04:56:32.884Z,46.83
2023-07-18T04:57:32.876Z,47.23
2023-07-18T04:58:32.846Z,47.13
2023-07-18T04:59:35.410Z,46.95
2023-07-18T05:00:32.792Z,47.65
2023-07-18T05:01:32.815Z,47.67
2023-07-18T05:02:32.824Z,47.97
2023-07-18T05:03:44.412Z,48.07
2023-07-18T05:04:33.942Z,48.39
2023-07-18T05:05:32.799Z,48.49
2023-07-18T05:06:32.740Z,49.43
2023-07-18T05:07:32.784Z,50.78
2023-07-18T05:08:32.746Z,52.87
2023-07-18T05:09:34.706Z,54.64
2023-07-18T05:10:32.723Z,56.22
2023-07-18T05:11:35.110Z,58.61
2023-07-18T05:12:32.685Z,60.80
2023-07-18T05:13:32.687Z,62.36
2023-07-18T05:14:32.652Z,64.23
2023-07-18T05:15:33.694Z,65.30
2023-07-18T05:16:32.657Z,66.23
2023-07-18T05:17:32.758Z,67.57
2023-07-18T05:18:32.641Z,68.91
2023-07-18T05:19:32.630Z,69.85
2023-07-18T05:20:32.594Z,70.15
2023-07-18T05:21:32.603Z,70.39
2023-07-18T05:22:32.580Z,70.89
2023-07-18T05:23:32.605Z,71.94
2023-07-18T05:24:32.579Z,72.64
2023-07-18T05:25:32.573Z,73.05
2023-07-18T05:26:32.534Z,73.15
2023-07-18T05:27:32.759Z,73.35
2023-07-18T05:28:32.548Z,73.35
2023-07-18T05:29:32.536Z,73.65
2023-07-18T05:30:32.497Z,73.79
2023-07-18T05:31:32.503Z,73.89
2023-07-18T05:32:32.541Z,74.19
2023-07-18T05:33:34.462Z,74.69
2023-07-18T05:34:32.438Z,75.20
2023-07-18T05:35:32.459Z,75.64
2023-07-18T05:36:32.440Z,76.04
2023-07-18T05:37:32.462Z,76.35
2023-07-18T05:38:32.405Z,76.62
2023-07-18T05:39:32.431Z,76.31
2023-07-18T05:40:32.419Z,76.42
2023-07-18T05:41:32.397Z,76.62
2023-07-18T05:42:32.378Z,76.42
2023-07-18T05:43:32.386Z,76.38
2023-07-18T05:44:32.398Z,76.28
2023-07-18T05:45:32.377Z,76.38
2023-07-18T05:46:32.321Z,76.51
2023-07-18T05:47:32.344Z,76.82
2023-07-18T05:48:32.293Z,77.22
2023-07-18T05:49:32.298Z,77.22
2023-07-18T05:50:32.322Z,77.32
2023-07-18T05:51:32.328Z,77.22
2023-07-18T05:52:32.310Z,77.12
2023-07-18T05:53:32.302Z,77.42
2023-07-18T05:54:32.313Z,77.12
2023-07-18T05:55:32.309Z,77.12
2023-07-18T05:56:32.210Z,77.28
2023-07-18T05:57:32.230Z,77.19
2023-07-18T05:58:32.309Z,77.39
2023-07-18T05:59:32.199Z,77.28
2023-07-18T06:00:32.189Z,77.19
2023-07-18T06:01:32.222Z,76.88
2023-07-18T06:02:32.170Z,76.84
2023-07-18T06:03:32.301Z,76.75
2023-07-18T06:04:32.105Z,76.95
2023-07-18T06:05:32.127Z,76.98
2023-07-18T06:06:32.088Z,77.49
2023-07-18T06:07:32.212Z,77.28
2023-07-18T06:08:32.064Z,77.79
2023-07-18T06:09:32.091Z,77.99
2023-07-18T06:10:32.052Z,77.99
2023-07-18T06:11:32.087Z,78.09
2023-07-18T06:12:32.028Z,78.30
2023-07-18T06:13:32.044Z,78.09
2023-07-18T06:14:32.015Z,77.49
2023-07-18T06:15:32.112Z,77.28
2023-07-18T06:16:32.012Z,77.28
2023-07-18T06:17:32.047Z,77.15
2023-07-18T06:18:31.968Z,77.49
2023-07-18T06:19:32.004Z,77.45
2023-07-18T06:20:31.964Z,77.45
2023-07-18T06:21:31.953Z,77.66
2023-07-18T06:22:31.988Z,77.45
2023-07-18T06:23:31.964Z,77.35
2023-07-18T06:24:31.900Z,77.35
2023-07-18T06:25:31.920Z,77.55
2023-07-18T06:26:31.916Z,77.04
2023-07-18T06:27:31.884Z,77.04
2023-07-18T06:28:31.850Z,76.95
2023-07-18T06:29:31.873Z,77.25
2023-07-18T06:30:31.872Z,77.75
2023-07-18T06:31:31.886Z,77.75
2023-07-18T06:32:31.858Z,77.35
2023-07-18T06:33:31.819Z,77.35
2023-07-18T06:34:31.859Z,77.86
2023-07-18T06:35:31.817Z,77.86
2023-07-18T06:36:31.785Z,77.89
2023-07-18T06:37:31.819Z,78.26
2023-07-18T06:38:31.764Z,78.26
2023-07-18T06:39:31.753Z,78.26
2023-07-18T06:40:31.735Z,78.06
2023-07-18T06:41:31.742Z,77.95
2023-07-18T06:42:31.698Z,78.56
2023-07-18T06:43:31.703Z,78.76
2023-07-18T06:44:31.669Z,78.56
2023-07-18T06:45:31.697Z,78.46
2023-07-18T06:46:31.675Z,78.32
2023-07-18T06:47:31.673Z,78.42
2023-07-18T06:48:31.624Z,78.42
2023-07-18T06:49:31.645Z,78.83
2023-07-18T06:50:31.637Z,78.52
2023-07-18T06:51:31.652Z,78.32
2023-07-18T06:52:34.780Z,78.08
2023-07-18T06:53:31.589Z,77.98
2023-07-18T06:54:31.602Z,78.22
2023-07-18T06:55:31.593Z,78.83
2023-07-18T06:56:31.560Z,79.33
2023-07-18T06:57:31.633Z,79.23
2023-07-18T06:58:31.553Z,79.33
2023-07-18T06:59:31.535Z,79.23
2023-07-18T07:00:31.497Z,78.79
2023-07-18T07:01:31.554Z,78.83
2023-07-18T07:02:31.564Z,78.69
2023-07-18T07:03:31.637Z,78.49
2023-07-18T07:04:31.468Z,78.69
2023-07-18T07:05:31.483Z,78.49
2023-07-18T07:06:31.458Z,78.79
2023-07-18T07:07:31.455Z,79.19
2023-07-18T07:08:31.430Z,79.09
2023-07-18T07:09:31.455Z,78.45
2023-07-18T07:10:31.383Z,78.05
2023-07-18T07:11:31.398Z,77.95
2023-07-18T07:12:36.807Z,78.55
2023-07-18T07:13:32.402Z,78.65
2023-07-18T07:14:31.373Z,78.15
2023-07-18T07:15:31.372Z,77.95
2023-07-18T07:16:31.342Z,77.75
2023-07-18T07:17:32.054Z,77.95
2023-07-18T07:18:31.309Z,77.64
2023-07-18T07:19:31.323Z,77.34
2023-07-18T07:20:31.325Z,77.44
2023-07-18T07:21:31.292Z,77.34
2023-07-18T07:22:31.319Z,77.14
2023-07-18T07:23:31.257Z,77.84
2023-07-18T07:24:31.264Z,78.15
2023-07-18T07:25:31.289Z,78.05
2023-07-18T07:26:32.148Z,78.05
2023-07-18T07:27:31.231Z,78.55
2023-07-18T07:28:31.188Z,78.15
2023-07-18T07:29:31.184Z,78.21
2023-07-18T07:30:31.213Z,78.01
2023-07-18T07:31:31.310Z,77.37
2023-07-18T07:32:31.225Z,77.27
2023-07-18T07:33:31.143Z,76.73
2023-07-18T07:34:32.322Z,76.23
2023-07-18T07:35:31.142Z,75.72
2023-07-18T07:36:31.106Z,76.23
2023-07-18T07:37:31.099Z,76.32
2023-07-18T07:38:31.099Z,75.99
2023-07-18T07:39:31.069Z,75.68
2023-07-18T07:40:31.051Z,75.29
2023-07-18T07:41:31.054Z,75.18
2023-07-18T07:42:31.043Z,75.18
2023-07-18T07:43:31.027Z,75.49
2023-07-18T07:44:31.013Z,75.89
2023-07-18T07:45:31.041Z,76.19
2023-07-18T07:46:33.071Z,76.39
2023-07-18T07:47:31.026Z,76.19
2023-07-18T07:48:30.965Z,76.19
2023-07-18T07:49:30.974Z,75.45
2023-07-18T07:50:30.968Z,74.95
2023-07-18T07:51:30.937Z,74.44
2023-07-18T07:52:30.929Z,74.04
2023-07-18T07:53:30.924Z,73.21
2023-07-18T07:54:30.890Z,73.81
2023-07-18T07:55:30.955Z,74.04
2023-07-18T07:56:30.921Z,74.55
2023-07-18T07:57:30.889Z,75.15
2023-07-18T07:58:31.071Z,75.21
2023-07-18T07:59:30.953Z,74.51
2023-07-18T08:00:30.853Z,73.91
2023-07-18T08:01:30.887Z,73.87
2023-07-18T08:02:30.926Z,72.60
2023-07-18T08:03:30.815Z,73.10
2023-07-18T08:04:30.933Z,73.50
2023-07-18T08:05:30.818Z,73.47
2023-07-18T08:06:30.811Z,72.87
2023-07-18T08:07:30.749Z,72.27
2023-07-18T08:08:30.790Z,72.06
2023-07-18T08:09:30.720Z,71.47
2023-07-18T08:10:30.758Z,71.66
2023-07-18T08:11:30.690Z,71.66
2023-07-18T08:12:30.732Z,71.83
2023-07-18T08:13:30.675Z,71.83
2023-07-18T08:14:30.701Z,71.33
2023-07-18T08:15:30.661Z,69.73
2023-07-18T08:16:30.683Z,70.12
2023-07-18T08:17:30.737Z,69.99
2023-07-18T08:18:30.666Z,69.49
2023-07-18T08:19:30.636Z,69.82
2023-07-18T08:20:30.611Z,70.63
2023-07-18T08:21:30.684Z,70.93
2023-07-18T08:22:30.620Z,70.39
2023-07-18T08:23:30.575Z,69.96
2023-07-18T08:24:30.732Z,69.46
2023-07-18T08:25:32.416Z,69.16
2023-07-18T08:26:30.553Z,68.96
2023-07-18T08:27:30.534Z,68.82
2023-07-18T08:28:30.565Z,68.42
2023-07-18T08:29:30.524Z,67.62
2023-07-18T08:30:30.533Z,67.72
2023-07-18T08:31:30.495Z,67.42
2023-07-18T08:32:30.513Z,67.02
2023-07-18T08:33:30.481Z,67.32
2023-07-18T08:34:30.509Z,67.32
2023-07-18T08:35:30.479Z,67.02
2023-07-18T08:36:30.448Z,67.52
2023-07-18T08:37:30.446Z,67.82
2023-07-18T08:38:30.455Z,67.72
2023-07-18T08:39:30.394Z,65.82
2023-07-18T08:40:30.406Z,66.85
2023-07-18T08:41:30.383Z,67.02
2023-07-18T08:42:30.401Z,66.82
2023-07-18T08:43:30.365Z,65.69
2023-07-18T08:44:30.371Z,64.69
2023-07-18T08:45:30.318Z,64.95
2023-07-18T08:46:30.391Z,65.12
2023-07-18T08:47:30.291Z,64.52
2023-07-18T08:48:30.324Z,64.32
2023-07-18T08:49:30.290Z,64.22
2023-07-18T08:50:30.315Z,63.72
2023-07-18T08:51:30.278Z,63.12
2023-07-18T08:52:30.319Z,63.62
2023-07-18T08:53:30.255Z,63.42
2023-07-18T08:54:30.310Z,63.29
2023-07-18T08:55:30.276Z,63.79
2023-07-18T08:56:30.263Z,62.39
2023-07-18T08:57:30.246Z,62.49
2023-07-18T08:58:30.212Z,61.66
2023-07-18T08:59:30.193Z,59.86
2023-07-18T09:00:30.185Z,57.76
2023-07-18T09:01:30.198Z,56.16
2023-07-18T09:02:30.184Z,55.79
2023-07-18T09:03:30.250Z,56.20
2023-07-18T09:04:30.149Z,55.79
2023-07-18T09:05:30.140Z,56.32
2023-07-18T09:06:30.122Z,55.92
2023-07-18T09:07:30.120Z,55.22
2023-07-18T09:08:30.096Z,54.99
2023-07-18T09:09:30.107Z,55.40
2023-07-18T09:10:30.081Z,55.49
2023-07-18T09:11:30.045Z,55.66
2023-07-18T09:12:30.056Z,55.17
2023-07-18T09:13:30.024Z,54.77
2023-07-18T09:14:30.037Z,54.69
2023-07-18T09:15:29.998Z,55.09
2023-07-18T09:16:30.065Z,55.19
2023-07-18T09:17:30.009Z,55.29
2023-07-18T09:18:30.006Z,55.72
2023-07-18T09:19:30.016Z,55.49
2023-07-18T09:20:29.960Z,55.19
2023-07-18T09:21:29.952Z,54.92
2023-07-18T09:22:29.936Z,55.42
2023-07-18T09:23:29.914Z,55.29
2023-07-18T09:24:29.966Z,54.69
2023-07-18T09:25:29.917Z,54.86
2023-07-18T09:26:29.989Z,54.27
2023-07-18T09:27:29.855Z,54.57
2023-07-18T09:28:29.904Z,55.07
2023-07-18T09:29:29.856Z,53.87
2023-07-18T09:30:29.879Z,54.27
2023-07-18T09:31:29.880Z,54.54
2023-07-18T09:32:29.880Z,54.44
2023-07-18T09:33:30.280Z,54.11
2023-07-18T09:34:29.878Z,54.02
2023-07-18T09:35:29.782Z,53.81
2023-07-18T09:36:29.792Z,53.61
2023-07-18T09:37:29.761Z,53.39
2023-07-18T09:38:29.750Z,53.52
2023-07-18T09:39:29.779Z,53.39
2023-07-18T09:40:29.746Z,52.79
2023-07-18T09:41:29.738Z,52.89
2023-07-18T09:42:29.793Z,52.47
2023-07-18T09:43:31.551Z,52.47
2023-07-18T09:44:33.887Z,51.97
2023-07-18T09:45:29.659Z,52.07
2023-07-18T09:46:29.767Z,52.37
2023-07-18T09:47:32.447Z,52.87
2023-07-18T09:48:29.879Z,53.06
2023-07-18T09:49:33.149Z,53.36
2023-07-18T09:50:29.624Z,52.74
2023-07-18T09:51:29.655Z,53.24
2023-07-18T09:52:29.604Z,52.64
2023-07-18T09:53:29.589Z,51.72
2023-07-18T09:54:29.612Z,51.32
2023-07-18T09:55:29.574Z,51.22
2023-07-18T09:56:29.556Z,51.72
2023-07-18T09:57:29.566Z,52.81
2023-07-18T09:58:29.551Z,52.12
2023-07-18T09:59:29.495Z,52.42
2023-07-18T10:00:29.526Z,50.73
2023-07-18T10:01:29.529Z,51.03
2023-07-18T10:02:29.546Z,50.32
2023-07-18T10:03:29.535Z,50.23
2023-07-18T10:04:29.564Z,51.03
2023-07-18T10:05:29.453Z,51.82
2023-07-18T10:06:29.499Z,50.82
2023-07-18T10:07:29.419Z,49.63
2023-07-18T10:08:29.444Z,48.63
2023-07-18T10:09:29.401Z,48.83
2023-07-18T10:10:29.418Z,48.91
2023-07-18T10:11:29.408Z,49.40
2023-07-18T10:12:29.386Z,49.90
2023-07-18T10:13:29.366Z,50.70
2023-07-18T10:14:29.356Z,51.03
2023-07-18T10:15:29.340Z,50.60
2023-07-18T10:16:29.412Z,49.90
2023-07-18T10:17:29.491Z,49.98
2023-07-18T10:18:29.352Z,49.28
2023-07-18T10:19:29.294Z,48.80
2023-07-18T10:20:29.299Z,48.88
2023-07-18T10:21:29.265Z,48.61
2023-07-18T10:22:29.426Z,48.61
2023-07-18T10:23:29.279Z,48.11
2023-07-18T10:24:29.254Z,48.41
2023-07-18T10:25:29.208Z,48.71
2023-07-18T10:26:29.240Z,48.50
2023-07-18T10:27:29.243Z,48.61
2023-07-18T10:28:29.231Z,48.61
2023-07-18T10:29:29.178Z,48.49
2023-07-18T10:30:29.205Z,47.19
2023-07-18T10:31:29.339Z,47.19
2023-07-18T10:32:29.230Z,47.29
2023-07-18T10:33:29.155Z,46.97
2023-07-18T10:34:29.135Z,48.16
2023-07-18T10:35:29.122Z,48.86
2023-07-18T10:36:29.099Z,48.36
2023-07-18T10:37:29.123Z,48.66
2023-07-18T10:38:29.100Z,48.36
2023-07-18T10:39:29.061Z,47.96
2023-07-18T10:40:29.130Z,48.49
2023-07-18T10:41:29.097Z,48.41
2023-07-18T10:42:29.066Z,49.01
2023-07-18T10:43:29.074Z,49.03
2023-07-18T10:44:29.732Z,49.60
2023-07-18T10:45:29.089Z,49.60
2023-07-18T10:46:29.198Z,48.80
2023-07-18T10:47:29.242Z,48.61
2023-07-18T10:48:29.067Z,48.80
2023-07-18T10:49:29.002Z,47.51
2023-07-18T10:50:29.058Z,47.49
2023-07-18T10:51:29.027Z,46.81
2023-07-18T10:52:29.041Z,47.02
2023-07-18T10:53:29.066Z,47.49
2023-07-18T10:54:28.923Z,48.08
2023-07-18T10:55:28.899Z,48.19
2023-07-18T10:56:28.911Z,47.59
2023-07-18T10:57:28.893Z,46.77
2023-07-18T10:58:28.888Z,46.97
2023-07-18T10:59:28.863Z,46.17
2023-07-18T11:00:28.861Z,46.17
2023-07-18T11:01:28.854Z,46.47
2023-07-18T11:02:28.904Z,46.05
2023-07-18T11:03:28.928Z,45.45
2023-07-18T11:04:28.863Z,45.36
2023-07-18T11:05:28.777Z,45.26
2023-07-18T11:06:28.796Z,45.03
2023-07-18T11:07:28.774Z,45.23
2023-07-18T11:08:28.856Z,44.04
2023-07-18T11:09:28.738Z,44.64
2023-07-18T11:10:28.747Z,44.74
2023-07-18T11:11:28.729Z,44.93
2023-07-18T11:12:28.738Z,45.23
2023-07-18T11:13:28.681Z,45.14
2023-07-18T11:14:28.713Z,45.03
2023-07-18T11:15:28.672Z,45.33
2023-07-18T11:16:28.738Z,45.63
2023-07-18T11:17:28.691Z,45.36
2023-07-18T11:18:28.644Z,45.75
2023-07-18T11:19:28.651Z,46.45
2023-07-18T11:20:28.637Z,46.55
2023-07-18T11:21:28.606Z,46.75
2023-07-18T11:22:28.638Z,46.45
2023-07-18T11:23:28.573Z,46.23
2023-07-18T11:24:28.612Z,46.33
2023-07-18T11:25:28.606Z,46.13
2023-07-18T11:26:29.957Z,45.93
2023-07-18T11:27:28.572Z,45.73
2023-07-18T11:28:28.565Z,45.63
2023-07-18T11:29:28.511Z,45.53
2023-07-18T11:30:28.532Z,45.73
2023-07-18T11:32:29.200Z,46.20
2023-07-18T11:33:28.550Z,46.11
2023-07-18T11:34:28.508Z,46.11
2023-07-18T11:35:28.460Z,47.32
2023-07-18T11:36:28.456Z,47.02
2023-07-18T11:37:31.458Z,47.64
2023-07-18T11:38:29.448Z,46.95
2023-07-18T11:39:28.431Z,46.55
2023-07-18T11:40:28.431Z,46.84
2023-07-18T11:41:30.079Z,46.92
2023-07-18T11:42:28.428Z,46.13
2023-07-18T11:43:28.361Z,46.13
2023-07-18T11:44:28.382Z,46.03
2023-07-18T11:45:28.355Z,46.62
2023-07-18T11:46:28.366Z,46.13
2023-07-18T11:47:28.443Z,45.53
2023-07-18T11:48:28.487Z,45.43
2023-07-18T11:49:28.312Z,45.43
2023-07-18T11:50:29.874Z,45.53
2023-07-18T11:51:28.322Z,45.43
2023-07-18T11:52:28.305Z,45.53
2023-07-18T11:53:28.264Z,45.14
2023-07-18T11:54:28.288Z,45.03
2023-07-18T11:55:28.251Z,45.43
2023-07-18T11:56:28.267Z,45.14
2023-07-18T11:57:28.263Z,45.55
2023-07-18T11:58:28.225Z,46.05
2023-07-18T11:59:28.199Z,46.35
2023-07-18T12:00:28.257Z,46.57
2023-07-18T12:01:28.193Z,47.07
2023-07-18T12:02:28.261Z,47.56
2023-07-18T12:03:28.350Z,47.47
2023-07-18T12:04:28.265Z,47.77
2023-07-18T12:05:28.155Z,47.56
2023-07-18T12:06:28.136Z,47.56
2023-07-18T12:07:28.115Z,47.29
2023-07-18T12:08:28.149Z,46.89
2023-07-18T12:09:28.103Z,47.29
2023-07-18T12:10:28.092Z,47.09
2023-07-18T12:11:28.416Z,47.39
2023-07-18T12:12:28.045Z,47.89
2023-07-18T12:13:28.187Z,46.99
2023-07-18T12:14:28.053Z,47.09
2023-07-18T12:15:28.031Z,46.30
2023-07-18T12:16:28.039Z,46.09
2023-07-18T12:17:28.044Z,46.87
2023-07-18T12:18:28.001Z,46.77
2023-07-18T12:19:28.016Z,46.97
2023-07-18T12:20:27.993Z,46.57
2023-07-18T12:21:27.989Z,46.47
2023-07-18T12:22:27.991Z,46.37
2023-07-18T12:23:27.953Z,46.37
2023-07-18T12:24:27.916Z,45.97
2023-07-18T12:25:27.957Z,45.08
2023-07-18T12:26:27.904Z,45.08
2023-07-18T12:27:27.914Z,44.96
2023-07-18T12:28:27.894Z,44.76
2023-07-18T12:29:27.915Z,44.54
2023-07-18T12:30:27.850Z,44.64
2023-07-18T12:31:27.952Z,44.32
2023-07-18T12:32:31.855Z,44.12
2023-07-18T12:33:27.899Z,43.72
2023-07-18T12:34:27.818Z,44.12
2023-07-18T12:35:27.884Z,45.11
2023-07-18T12:36:27.794Z,44.62
2023-07-18T12:37:27.822Z,44.52
2023-07-18T12:38:29.954Z,45.21
2023-07-18T12:39:27.796Z,45.81
2023-07-18T12:40:27.863Z,45.61
2023-07-18T12:41:27.768Z,45.51
2023-07-18T12:42:27.717Z,45.93
2023-07-18T12:43:27.745Z,45.73
2023-07-18T12:44:29.745Z,45.93
2023-07-18T12:45:27.719Z,45.63
2023-07-18T12:46:27.793Z,45.81
2023-07-18T12:47:27.856Z,45.71
2023-07-18T12:48:27.659Z,45.68
2023-07-18T12:50:27.858Z,44.10
2023-07-18T12:51:27.662Z,44.89
2023-07-18T12:52:27.621Z,44.89
2023-07-18T12:53:27.626Z,44.49
2023-07-18T12:54:27.591Z,44.49